Terminal Aerodrome Forecast
Issued by NWS Paducah, KY

Home | Current Version | Previous Version | Text Only | Print | Product List | Glossary On
Versions: 1 2 3 4 5 6 7 8 9 10 11 12 13
000
FTUS43 KPAH 301100
TAFEVV
TAF
KEVV 301126Z 3012/3112 17003KT P6SM SKC
     FM301500 19004KT P6SM BKN100
     FM310200 02003KT P6SM BKN040 PROB30 3102/3108 -SHRA=

USA.gov is the U.S. government's official web portal to all federal, state and local government web resources and services.